sensor_id;sensor_type;location;lat;lon;timestamp;pressure;altitude;pressure_sealevel;temperature;humidity
34738;BME280;39910;47.154;27.614;2022-09-17T00:02:21;99665.59;;;18.27;100.00
34738;BME280;39910;47.154;27.614;2022-09-17T00:04:50;99665.44;;;18.34;100.00
34738;BME280;39910;47.154;27.614;2022-09-17T00:07:16;99669.50;;;18.19;100.00
34738;BME280;39910;47.154;27.614;2022-09-17T00:09:42;99664.25;;;18.08;100.00
34738;BME280;39910;47.154;27.614;2022-09-17T00:12:08;99670.31;;;18.20;100.00
34738;BME280;39910;47.154;27.614;2022-09-17T00:14:34;99668.13;;;18.17;100.00
34738;BME280;39910;47.154;27.614;2022-09-17T00:16:59;99654.38;;;18.30;100.00
34738;BME280;39910;47.154;27.614;2022-09-17T00:19:25;99654.22;;;18.37;100.00
34738;BME280;39910;47.154;27.614;2022-09-17T00:21:50;99651.91;;;18.29;100.00
34738;BME280;39910;47.154;27.614;2022-09-17T00:24:17;99655.94;;;18.09;100.00
34738;BME280;39910;47.154;27.614;2022-09-17T00:26:43;99665.94;;;18.14;100.00
34738;BME280;39910;47.154;27.614;2022-09-17T00:29:09;99664.72;;;18.21;100.00
34738;BME280;39910;47.154;27.614;2022-09-17T00:31:36;99653.16;;;18.21;100.00
34738;BME280;39910;47.154;27.614;2022-09-17T00:34:03;99660.41;;;18.20;100.00
34738;BME280;39910;47.154;27.614;2022-09-17T00:36:29;99662.13;;;18.10;100.00
34738;BME280;39910;47.154;27.614;2022-09-17T00:38:58;99665.47;;;18.17;100.00
34738;BME280;39910;47.154;27.614;2022-09-17T00:41:27;99668.63;;;18.14;100.00
34738;BME280;39910;47.154;27.614;2022-09-17T00:43:55;99673.13;;;18.08;100.00
34738;BME280;39910;47.154;27.614;2022-09-17T00:46:37;99667.41;;;18.05;100.00
34738;BME280;39910;47.154;27.614;2022-09-17T00:49:10;99659.53;;;18.15;100.00
34738;BME280;39910;47.154;27.614;2022-09-17T00:51:45;99651.47;;;17.98;100.00
34738;BME280;39910;47.154;27.614;2022-09-17T00:54:14;99645.44;;;17.91;100.00
34738;BME280;39910;47.154;27.614;2022-09-17T00:56:40;99650.25;;;17.89;100.00
34738;BME280;39910;47.154;27.614;2022-09-17T00:59:08;99642.22;;;17.60;100.00
34738;BME280;39910;47.154;27.614;2022-09-17T01:01:34;99649.06;;;17.68;100.00
34738;BME280;39910;47.154;27.614;2022-09-17T01:04:00;99641.41;;;17.72;100.00
34738;BME280;39910;47.154;27.614;2022-09-17T01:12:16;99640.03;;;17.57;100.00
34738;BME280;39910;47.154;27.614;2022-09-17T01:43:29;99629.19;;;17.81;100.00
34738;BME280;39910;47.154;27.614;2022-09-17T01:46:11;99619.13;;;17.71;100.00
34738;BME280;39910;47.154;27.614;2022-09-17T01:48:42;99615.66;;;17.59;100.00
34738;BME280;39910;47.154;27.614;2022-09-17T01:51:13;99611.63;;;17.73;100.00
34738;BME280;39910;47.154;27.614;2022-09-17T01:56:21;99618.06;;;17.72;100.00
34738;BME280;39910;47.154;27.614;2022-09-17T01:59:03;99615.00;;;17.68;100.00
34738;BME280;39910;47.154;27.614;2022-09-17T02:01:32;99617.81;;;17.74;100.00
34738;BME280;39910;47.154;27.614;2022-09-17T02:04:06;99624.97;;;17.85;100.00
34738;BME280;39910;47.154;27.614;2022-09-17T02:06:37;99626.59;;;17.86;100.00
34738;BME280;39910;47.154;27.614;2022-09-17T02:09:14;99634.41;;;17.71;100.00
34738;BME280;39910;47.154;27.614;2022-09-17T02:11:44;99634.22;;;17.77;100.00
34738;BME280;39910;47.154;27.614;2022-09-17T02:14:20;99638.72;;;17.88;100.00
34738;BME280;39910;47.154;27.614;2022-09-17T02:16:51;99638.56;;;17.78;100.00
34738;BME280;39910;47.154;27.614;2022-09-17T02:19:31;99634.97;;;17.73;100.00
34738;BME280;39910;47.154;27.614;2022-09-17T02:25:03;99630.50;;;17.78;100.00
34738;BME280;39910;47.154;27.614;2022-09-17T02:30:15;99627.16;;;17.71;100.00
34738;BME280;39910;47.154;27.614;2022-09-17T02:32:41;99624.03;;;17.62;100.00
34738;BME280;39910;47.154;27.614;2022-09-17T02:35:08;99634.56;;;17.81;100.00
34738;BME280;39910;47.154;27.614;2022-09-17T02:37:34;99631.63;;;17.99;100.00
34738;BME280;39910;47.154;27.614;2022-09-17T02:39:59;99634.56;;;17.81;100.00
34738;BME280;39910;47.154;27.614;2022-09-17T02:48:03;99643.03;;;17.61;100.00
34738;BME280;39910;47.154;27.614;2022-09-17T02:53:47;99633.88;;;17.57;100.00
34738;BME280;39910;47.154;27.614;2022-09-17T02:57:16;99629.78;;;17.54;100.00
34738;BME280;39910;47.154;27.614;2022-09-17T02:59:40;99622.13;;;17.46;100.00
34738;BME280;39910;47.154;27.614;2022-09-17T03:04:56;99608.56;;;17.53;100.00
34738;BME280;39910;47.154;27.614;2022-09-17T03:07:22;99618.34;;;17.42;100.00
34738;BME280;39910;47.154;27.614;2022-09-17T03:09:48;99621.44;;;17.51;100.00
34738;BME280;39910;47.154;27.614;2022-09-17T03:12:14;99621.31;;;17.46;100.00
34738;BME280;39910;47.154;27.614;2022-09-17T03:14:40;99612.56;;;17.33;100.00
34738;BME280;39910;47.154;27.614;2022-09-17T03:17:06;99616.41;;;17.26;100.00
34738;BME280;39910;47.154;27.614;2022-09-17T03:19:31;99615.44;;;17.15;100.00
34738;BME280;39910;47.154;27.614;2022-09-17T03:21:57;99613.56;;;17.16;100.00
34738;BME280;39910;47.154;27.614;2022-09-17T03:24:22;99603.75;;;17.21;100.00
34738;BME280;39910;47.154;27.614;2022-09-17T03:26:48;99611.53;;;17.23;100.00
34738;BME280;39910;47.154;27.614;2022-09-17T03:29:14;99615.78;;;17.19;100.00
34738;BME280;39910;47.154;27.614;2022-09-17T03:31:39;99615.13;;;17.28;100.00
34738;BME280;39910;47.154;27.614;2022-09-17T03:34:05;99607.88;;;17.12;100.00
34738;BME280;39910;47.154;27.614;2022-09-17T03:36:31;99607.41;;;17.32;100.00
34738;BME280;39910;47.154;27.614;2022-09-17T03:38:57;99607.34;;;17.27;100.00
34738;BME280;39910;47.154;27.614;2022-09-17T03:41:23;99604.22;;;17.18;100.00
34738;BME280;39910;47.154;27.614;2022-09-17T03:43:49;99602.59;;;17.17;100.00
34738;BME280;39910;47.154;27.614;2022-09-17T03:46:15;99593.03;;;17.21;100.00
34738;BME280;39910;47.154;27.614;2022-09-17T03:48:41;99601.91;;;17.10;100.00
34738;BME280;39910;47.154;27.614;2022-09-17T03:51:06;99600.25;;;16.92;100.00
34738;BME280;39910;47.154;27.614;2022-09-17T03:53:32;99587.75;;;16.69;100.00
34738;BME280;39910;47.154;27.614;2022-09-17T03:55:59;99596.75;;;16.92;100.00
34738;BME280;39910;47.154;27.614;2022-09-17T03:58:25;99585.75;;;16.76;100.00
34738;BME280;39910;47.154;27.614;2022-09-17T04:00:50;99578.53;;;16.77;100.00
34738;BME280;39910;47.154;27.614;2022-09-17T04:03:18;99566.69;;;16.61;100.00
34738;BME280;39910;47.154;27.614;2022-09-17T04:05:43;99575.72;;;16.83;100.00
34738;BME280;39910;47.154;27.614;2022-09-17T04:08:09;99575.66;;;16.95;100.00
34738;BME280;39910;47.154;27.614;2022-09-17T04:10:35;99574.09;;;16.82;100.00
34738;BME280;39910;47.154;27.614;2022-09-17T04:13:00;99567.34;;;16.80;100.00
34738;BME280;39910;47.154;27.614;2022-09-17T04:15:26;99578.19;;;16.73;100.00
34738;BME280;39910;47.154;27.614;2022-09-17T04:17:55;99584.56;;;16.84;100.00
34738;BME280;39910;47.154;27.614;2022-09-17T04:20:22;99594.34;;;17.19;100.00
34738;BME280;39910;47.154;27.614;2022-09-17T04:22:48;99590.34;;;17.21;100.00
34738;BME280;39910;47.154;27.614;2022-09-17T04:25:13;99591.59;;;17.02;100.00
34738;BME280;39910;47.154;27.614;2022-09-17T04:27:39;99590.06;;;17.06;100.00
34738;BME280;39910;47.154;27.614;2022-09-17T04:30:05;99595.44;;;17.06;100.00
34738;BME280;39910;47.154;27.614;2022-09-17T04:32:31;99596.28;;;17.23;100.00
34738;BME280;39910;47.154;27.614;2022-09-17T04:34:57;99595.13;;;17.19;100.00
34738;BME280;39910;47.154;27.614;2022-09-17T04:37:22;99598.19;;;17.11;100.00
34738;BME280;39910;47.154;27.614;2022-09-17T04:39:50;99605.38;;;17.22;100.00
34738;BME280;39910;47.154;27.614;2022-09-17T04:42:16;99603.91;;;17.31;100.00
34738;BME280;39910;47.154;27.614;2022-09-17T04:44:42;99609.28;;;17.31;100.00
34738;BME280;39910;47.154;27.614;2022-09-17T04:47:07;99602.66;;;17.34;100.00
34738;BME280;39910;47.154;27.614;2022-09-17T04:49:33;99616.50;;;17.31;100.00
34738;BME280;39910;47.154;27.614;2022-09-17T04:51:58;99607.66;;;17.47;100.00
34738;BME280;39910;47.154;27.614;2022-09-17T04:54:23;99611.41;;;17.29;100.00
34738;BME280;39910;47.154;27.614;2022-09-17T04:56:49;99613.44;;;17.39;100.00
34738;BME280;39910;47.154;27.614;2022-09-17T04:59:15;99605.53;;;17.32;100.00
34738;BME280;39910;47.154;27.614;2022-09-17T05:01:40;99606.69;;;17.36;100.00
34738;BME280;39910;47.154;27.614;2022-09-17T05:04:07;99589.94;;;17.29;100.00
34738;BME280;39910;47.154;27.614;2022-09-17T05:06:33;99596.38;;;17.28;100.00
34738;BME280;39910;47.154;27.614;2022-09-17T05:08:59;99602.16;;;17.37;100.00
34738;BME280;39910;47.154;27.614;2022-09-17T05:11:24;99601.28;;;17.48;100.00
34738;BME280;39910;47.154;27.614;2022-09-17T05:13:50;99597.75;;;17.48;100.00
34738;BME280;39910;47.154;27.614;2022-09-17T05:16:15;99591.44;;;17.54;100.00
34738;BME280;39910;47.154;27.614;2022-09-17T05:18:41;99580.03;;;17.47;100.00
34738;BME280;39910;47.154;27.614;2022-09-17T05:21:06;99597.19;;;17.46;100.00
34738;BME280;39910;47.154;27.614;2022-09-17T05:23:32;99592.59;;;17.41;100.00
34738;BME280;39910;47.154;27.614;2022-09-17T05:25:58;99590.38;;;17.38;100.00
34738;BME280;39910;47.154;27.614;2022-09-17T05:28:26;99595.25;;;17.41;100.00
34738;BME280;39910;47.154;27.614;2022-09-17T05:30:52;99585.56;;;17.40;100.00
34738;BME280;39910;47.154;27.614;2022-09-17T05:33:17;99588.13;;;17.18;100.00
34738;BME280;39910;47.154;27.614;2022-09-17T05:35:44;99589.78;;;17.19;100.00
34738;BME280;39910;47.154;27.614;2022-09-17T05:38:10;99588.78;;;17.25;100.00
34738;BME280;39910;47.154;27.614;2022-09-17T05:40:36;99591.56;;;17.13;100.00
34738;BME280;39910;47.154;27.614;2022-09-17T05:43:05;99584.19;;;17.21;100.00
34738;BME280;39910;47.154;27.614;2022-09-17T05:45:34;99588.50;;;17.38;100.00
34738;BME280;39910;47.154;27.614;2022-09-17T05:48:03;99584.13;;;17.49;100.00
34738;BME280;39910;47.154;27.614;2022-09-17T05:50:29;99582.56;;;17.20;100.00
34738;BME280;39910;47.154;27.614;2022-09-17T05:52:55;99591.22;;;17.55;100.00
34738;BME280;39910;47.154;27.614;2022-09-17T05:55:22;99584.44;;;17.53;100.00
34738;BME280;39910;47.154;27.614;2022-09-17T05:57:48;99588.19;;;17.52;100.00
34738;BME280;39910;47.154;27.614;2022-09-17T06:00:14;99594.31;;;17.64;100.00
34738;BME280;39910;47.154;27.614;2022-09-17T06:02:40;99590.81;;;17.63;100.00
34738;BME280;39910;47.154;27.614;2022-09-17T06:05:06;99598.34;;;17.50;100.00
34738;BME280;39910;47.154;27.614;2022-09-17T06:07:34;99600.53;;;17.53;100.00
34738;BME280;39910;47.154;27.614;2022-09-17T06:10:01;99591.94;;;17.51;100.00
34738;BME280;39910;47.154;27.614;2022-09-17T06:12:26;99582.16;;;17.61;100.00
34738;BME280;39910;47.154;27.614;2022-09-17T06:14:52;99580.00;;;17.75;100.00
34738;BME280;39910;47.154;27.614;2022-09-17T06:17:17;99577.97;;;17.82;100.00
34738;BME280;39910;47.154;27.614;2022-09-17T06:19:42;99573.88;;;17.97;100.00
34738;BME280;39910;47.154;27.614;2022-09-17T06:22:08;99566.50;;;17.87;100.00
34738;BME280;39910;47.154;27.614;2022-09-17T06:24:33;99562.94;;;17.81;100.00
34738;BME280;39910;47.154;27.614;2022-09-17T06:26:59;99550.84;;;17.79;100.00
34738;BME280;39910;47.154;27.614;2022-09-17T06:29:24;99550.56;;;17.97;100.00
34738;BME280;39910;47.154;27.614;2022-09-17T06:31:50;99550.00;;;17.95;100.00
34738;BME280;39910;47.154;27.614;2022-09-17T06:34:16;99548.75;;;18.03;100.00
34738;BME280;39910;47.154;27.614;2022-09-17T06:36:42;99561.13;;;18.04;100.00
34738;BME280;39910;47.154;27.614;2022-09-17T06:39:07;99562.09;;;18.14;100.00
34738;BME280;39910;47.154;27.614;2022-09-17T06:41:33;99559.69;;;18.18;100.00
34738;BME280;39910;47.154;27.614;2022-09-17T06:43:59;99568.56;;;18.18;100.00
34738;BME280;39910;47.154;27.614;2022-09-17T06:46:26;99567.22;;;18.38;100.00
34738;BME280;39910;47.154;27.614;2022-09-17T06:48:51;99574.75;;;18.41;100.00
34738;BME280;39910;47.154;27.614;2022-09-17T06:51:17;99580.75;;;18.48;100.00
34738;BME280;39910;47.154;27.614;2022-09-17T06:53:42;99600.25;;;18.38;100.00
34738;BME280;39910;47.154;27.614;2022-09-17T06:56:08;99608.69;;;18.47;100.00
34738;BME280;39910;47.154;27.614;2022-09-17T06:58:35;99600.38;;;18.48;100.00
34738;BME280;39910;47.154;27.614;2022-09-17T07:01:02;99611.28;;;18.59;100.00
34738;BME280;39910;47.154;27.614;2022-09-17T07:03:29;99617.13;;;18.56;100.00
34738;BME280;39910;47.154;27.614;2022-09-17T07:05:56;99629.91;;;18.48;100.00
34738;BME280;39910;47.154;27.614;2022-09-17T07:08:21;99640.53;;;18.38;100.00
34738;BME280;39910;47.154;27.614;2022-09-17T07:10:47;99644.28;;;18.20;100.00
34738;BME280;39910;47.154;27.614;2022-09-17T07:13:13;99644.13;;;18.27;100.00
34738;BME280;39910;47.154;27.614;2022-09-17T07:15:38;99643.56;;;18.25;100.00
34738;BME280;39910;47.154;27.614;2022-09-17T07:18:08;99643.81;;;18.23;100.00
34738;BME280;39910;47.154;27.614;2022-09-17T07:20:34;99665.19;;;18.35;100.00
34738;BME280;39910;47.154;27.614;2022-09-17T07:23:00;99664.66;;;18.16;100.00
34738;BME280;39910;47.154;27.614;2022-09-17T07:25:26;99673.25;;;18.18;100.00
34738;BME280;39910;47.154;27.614;2022-09-17T07:27:52;99676.44;;;18.15;100.00
34738;BME280;39910;47.154;27.614;2022-09-17T07:30:18;99674.97;;;18.08;100.00
34738;BME280;39910;47.154;27.614;2022-09-17T07:32:44;99675.78;;;17.91;100.00
34738;BME280;39910;47.154;27.614;2022-09-17T07:35:09;99679.03;;;17.93;100.00
34738;BME280;39910;47.154;27.614;2022-09-17T07:37:35;99679.69;;;18.01;100.00
34738;BME280;39910;47.154;27.614;2022-09-17T07:40:01;99676.09;;;18.12;100.00
34738;BME280;39910;47.154;27.614;2022-09-17T07:42:26;99677.06;;;18.06;100.00
34738;BME280;39910;47.154;27.614;2022-09-17T07:44:52;99659.75;;;18.13;100.00
34738;BME280;39910;47.154;27.614;2022-09-17T07:47:18;99663.13;;;18.42;100.00
34738;BME280;39910;47.154;27.614;2022-09-17T07:49:44;99661.16;;;18.55;100.00
34738;BME280;39910;47.154;27.614;2022-09-17T07:52:09;99649.91;;;18.58;100.00
34738;BME280;39910;47.154;27.614;2022-09-17T07:54:35;99657.16;;;18.74;100.00
34738;BME280;39910;47.154;27.614;2022-09-17T07:57:03;99661.13;;;18.71;100.00
34738;BME280;39910;47.154;27.614;2022-09-17T07:59:29;99667.09;;;18.57;100.00
34738;BME280;39910;47.154;27.614;2022-09-17T08:01:55;99681.72;;;18.44;100.00
34738;BME280;39910;47.154;27.614;2022-09-17T08:04:20;99679.91;;;18.33;100.00
34738;BME280;39910;47.154;27.614;2022-09-17T08:06:47;99674.53;;;18.33;100.00
34738;BME280;39910;47.154;27.614;2022-09-17T08:09:14;99670.84;;;18.56;100.00
34738;BME280;39910;47.154;27.614;2022-09-17T08:11:40;99659.03;;;18.73;100.00
34738;BME280;39910;47.154;27.614;2022-09-17T08:14:08;99641.34;;;18.77;100.00
34738;BME280;39910;47.154;27.614;2022-09-17T08:16:33;99631.53;;;18.88;100.00
34738;BME280;39910;47.154;27.614;2022-09-17T08:18:59;99618.91;;;18.89;100.00
34738;BME280;39910;47.154;27.614;2022-09-17T08:21:25;99618.06;;;19.10;100.00
34738;BME280;39910;47.154;27.614;2022-09-17T08:23:51;99622.91;;;18.86;100.00
34738;BME280;39910;47.154;27.614;2022-09-17T08:26:18;99621.56;;;19.11;100.00
34738;BME280;39910;47.154;27.614;2022-09-17T08:28:46;99627.94;;;19.31;100.00
34738;BME280;39910;47.154;27.614;2022-09-17T08:31:14;99624.56;;;19.41;100.00
34738;BME280;39910;47.154;27.614;2022-09-17T08:33:40;99626.75;;;19.17;100.00
34738;BME280;39910;47.154;27.614;2022-09-17T08:36:09;99621.59;;;19.16;100.00
34738;BME280;39910;47.154;27.614;2022-09-17T08:38:35;99628.34;;;18.91;100.00
34738;BME280;39910;47.154;27.614;2022-09-17T08:46:27;99598.44;;;19.10;100.00
34738;BME280;39910;47.154;27.614;2022-09-17T08:54:42;99618.09;;;19.15;100.00
34738;BME280;39910;47.154;27.614;2022-09-17T08:57:54;99615.41;;;18.88;100.00
34738;BME280;39910;47.154;27.614;2022-09-17T09:00:19;99604.47;;;19.22;100.00
34738;BME280;39910;47.154;27.614;2022-09-17T09:03:20;99598.22;;;19.70;100.00
34738;BME280;39910;47.154;27.614;2022-09-17T09:05:50;99595.00;;;19.73;100.00
34738;BME280;39910;47.154;27.614;2022-09-17T09:08:34;99590.81;;;19.55;100.00
34738;BME280;39910;47.154;27.614;2022-09-17T09:11:09;99602.06;;;19.52;100.00
34738;BME280;39910;47.154;27.614;2022-09-17T09:13:44;99588.59;;;19.52;100.00
34738;BME280;39910;47.154;27.614;2022-09-17T09:16:16;99589.66;;;19.46;100.00
34738;BME280;39910;47.154;27.614;2022-09-17T09:18:42;99589.34;;;19.43;100.00
34738;BME280;39910;47.154;27.614;2022-09-17T09:21:24;99584.69;;;19.33;100.00
34738;BME280;39910;47.154;27.614;2022-09-17T09:26:48;99574.84;;;19.76;100.00
34738;BME280;39910;47.154;27.614;2022-09-17T09:29:41;99579.81;;;19.57;100.00
34738;BME280;39910;47.154;27.614;2022-09-17T09:32:34;99586.56;;;19.32;100.00
34738;BME280;39910;47.154;27.614;2022-09-17T09:35:18;99591.94;;;19.32;100.00
34738;BME280;39910;47.154;27.614;2022-09-17T09:38:11;99571.25;;;19.33;100.00
34738;BME280;39910;47.154;27.614;2022-09-17T09:43:21;99577.44;;;19.33;100.00
34738;BME280;39910;47.154;27.614;2022-09-17T09:54:41;99590.63;;;19.08;100.00
34738;BME280;39910;47.154;27.614;2022-09-17T09:57:13;99590.41;;;18.88;100.00
34738;BME280;39910;47.154;27.614;2022-09-17T09:59:41;99588.25;;;19.12;100.00
34738;BME280;39910;47.154;27.614;2022-09-17T10:02:07;99591.84;;;19.22;100.00
34738;BME280;39910;47.154;27.614;2022-09-17T10:04:33;99586.38;;;19.39;100.00
34738;BME280;39910;47.154;27.614;2022-09-17T10:07:01;99588.66;;;19.25;100.00
34738;BME280;39910;47.154;27.614;2022-09-17T10:09:28;99595.47;;;19.38;100.00
34738;BME280;39910;47.154;27.614;2022-09-17T10:14:37;99598.75;;;19.40;100.00
34738;BME280;39910;47.154;27.614;2022-09-17T10:19:42;99601.22;;;19.47;100.00
34738;BME280;39910;47.154;27.614;2022-09-17T10:22:39;99587.19;;;19.45;100.00
34738;BME280;39910;47.154;27.614;2022-09-17T10:25:32;99590.63;;;19.35;100.00
34738;BME280;39910;47.154;27.614;2022-09-17T10:28:01;99594.81;;;18.99;100.00
34738;BME280;39910;47.154;27.614;2022-09-17T10:30:28;99581.09;;;19.22;100.00
34738;BME280;39910;47.154;27.614;2022-09-17T10:35:38;99579.72;;;19.20;100.00
34738;BME280;39910;47.154;27.614;2022-09-17T10:38:03;99587.19;;;19.13;100.00
34738;BME280;39910;47.154;27.614;2022-09-17T10:40:31;99580.81;;;19.24;100.00
34738;BME280;39910;47.154;27.614;2022-09-17T10:45:43;99579.34;;;18.84;100.00
34738;BME280;39910;47.154;27.614;2022-09-17T10:48:17;99567.28;;;18.87;100.00
34738;BME280;39910;47.154;27.614;2022-09-17T10:50:49;99564.03;;;18.85;100.00
34738;BME280;39910;47.154;27.614;2022-09-17T10:53:16;99563.59;;;18.71;100.00
34738;BME280;39910;47.154;27.614;2022-09-17T10:58:53;99577.53;;;19.17;100.00
34738;BME280;39910;47.154;27.614;2022-09-17T11:04:19;99580.63;;;19.03;100.00
34738;BME280;39910;47.154;27.614;2022-09-17T11:18:36;99585.34;;;18.91;100.00
34738;BME280;39910;47.154;27.614;2022-09-17T11:28:57;99580.06;;;19.01;100.00
34738;BME280;39910;47.154;27.614;2022-09-17T11:39:25;99574.66;;;18.96;100.00
34738;BME280;39910;47.154;27.614;2022-09-17T11:41:53;99571.34;;;18.89;100.00
34738;BME280;39910;47.154;27.614;2022-09-17T11:44:27;99574.88;;;18.68;100.00
34738;BME280;39910;47.154;27.614;2022-09-17T11:47:08;99570.47;;;18.84;100.00
34738;BME280;39910;47.154;27.614;2022-09-17T11:49:55;99563.03;;;19.18;100.00
34738;BME280;39910;47.154;27.614;2022-09-17T11:52:32;99569.22;;;19.18;100.00
34738;BME280;39910;47.154;27.614;2022-09-17T11:55:17;99555.38;;;19.04;100.00
34738;BME280;39910;47.154;27.614;2022-09-17T11:57:44;99552.50;;;19.16;100.00
34738;BME280;39910;47.154;27.614;2022-09-17T12:00:17;99552.03;;;19.19;100.00
34738;BME280;39910;47.154;27.614;2022-09-17T12:02:57;99537.03;;;19.60;100.00
34738;BME280;39910;47.154;27.614;2022-09-17T12:05:28;99536.47;;;19.91;100.00
34738;BME280;39910;47.154;27.614;2022-09-17T12:08:02;99532.44;;;19.93;100.00
34738;BME280;39910;47.154;27.614;2022-09-17T12:13:17;99528.34;;;19.53;100.00
34738;BME280;39910;47.154;27.614;2022-09-17T12:21:24;99514.50;;;19.35;100.00
34738;BME280;39910;47.154;27.614;2022-09-17T12:24:02;99511.28;;;19.32;100.00
34738;BME280;39910;47.154;27.614;2022-09-17T12:26:56;99508.53;;;18.95;100.00
34738;BME280;39910;47.154;27.614;2022-09-17T12:35:06;99511.22;;;18.95;100.00
34738;BME280;39910;47.154;27.614;2022-09-17T12:37:49;99511.59;;;19.09;100.00
34738;BME280;39910;47.154;27.614;2022-09-17T12:40:31;99497.38;;;19.14;100.00
34738;BME280;39910;47.154;27.614;2022-09-17T12:43:37;99497.25;;;18.98;100.00
34738;BME280;39910;47.154;27.614;2022-09-17T12:49:36;99525.69;;;18.67;100.00
34738;BME280;39910;47.154;27.614;2022-09-17T13:00:18;99518.00;;;18.54;100.00
34738;BME280;39910;47.154;27.614;2022-09-17T13:03:13;99510.13;;;18.47;100.00
34738;BME280;39910;47.154;27.614;2022-09-17T13:08:45;99513.56;;;18.43;100.00
34738;BME280;39910;47.154;27.614;2022-09-17T13:11:45;99511.44;;;18.45;100.00
34738;BME280;39910;47.154;27.614;2022-09-17T13:14:18;99501.00;;;18.48;100.00
34738;BME280;39910;47.154;27.614;2022-09-17T13:16:56;99496.41;;;18.22;100.00
34738;BME280;39910;47.154;27.614;2022-09-17T13:22:08;99488.09;;;18.23;100.00
34738;BME280;39910;47.154;27.614;2022-09-17T13:24:39;99482.84;;;18.34;100.00
34738;BME280;39910;47.154;27.614;2022-09-17T13:27:19;99474.06;;;18.16;100.00
34738;BME280;39910;47.154;27.614;2022-09-17T13:40:05;99483.72;;;17.95;100.00
34738;BME280;39910;47.154;27.614;2022-09-17T13:42:45;99481.38;;;17.82;100.00
34738;BME280;39910;47.154;27.614;2022-09-17T13:45:14;99483.00;;;17.83;100.00
34738;BME280;39910;47.154;27.614;2022-09-17T13:48:18;99476.78;;;17.78;100.00
34738;BME280;39910;47.154;27.614;2022-09-17T13:50:45;99477.91;;;17.82;100.00
34738;BME280;39910;47.154;27.614;2022-09-17T14:08:50;99472.34;;;17.88;100.00
34738;BME280;39910;47.154;27.614;2022-09-17T14:19:26;99465.56;;;17.64;100.00
34738;BME280;39910;47.154;27.614;2022-09-17T14:35:36;99444.81;;;17.76;100.00
34738;BME280;39910;47.154;27.614;2022-09-17T14:40:52;99440.38;;;17.65;100.00
34738;BME280;39910;47.154;27.614;2022-09-17T14:49:28;99438.19;;;17.45;100.00
34738;BME280;39910;47.154;27.614;2022-09-17T14:51:58;99437.72;;;17.48;100.00
34738;BME280;39910;47.154;27.614;2022-09-17T14:54:28;99445.75;;;17.48;100.00
34738;BME280;39910;47.154;27.614;2022-09-17T14:56:56;99456.88;;;17.40;100.00
34738;BME280;39910;47.154;27.614;2022-09-17T15:04:54;99471.03;;;17.35;100.00
34738;BME280;39910;47.154;27.614;2022-09-17T15:07:22;99457.94;;;17.39;100.00
34738;BME280;39910;47.154;27.614;2022-09-17T15:09:48;99456.56;;;17.36;100.00
34738;BME280;39910;47.154;27.614;2022-09-17T15:12:23;99458.69;;;17.34;100.00
34738;BME280;39910;47.154;27.614;2022-09-17T15:14:51;99470.13;;;17.30;100.00
34738;BME280;39910;47.154;27.614;2022-09-17T15:17:18;99461.44;;;17.23;100.00
34738;BME280;39910;47.154;27.614;2022-09-17T15:19:55;99464.59;;;17.03;100.00
34738;BME280;39910;47.154;27.614;2022-09-17T15:22:31;99463.00;;;17.19;100.00
34738;BME280;39910;47.154;27.614;2022-09-17T15:25:14;99460.00;;;17.15;100.00
34738;BME280;39910;47.154;27.614;2022-09-17T15:27:44;99455.03;;;17.07;100.00
34738;BME280;39910;47.154;27.614;2022-09-17T15:30:12;99449.44;;;17.08;100.00
34738;BME280;39910;47.154;27.614;2022-09-17T15:32:40;99451.53;;;17.06;100.00
34738;BME280;39910;47.154;27.614;2022-09-17T15:37:44;99437.75;;;17.15;100.00
34738;BME280;39910;47.154;27.614;2022-09-17T15:40:37;99433.03;;;17.05;100.00
34738;BME280;39910;47.154;27.614;2022-09-17T15:45:48;99441.56;;;17.19;100.00
34738;BME280;39910;47.154;27.614;2022-09-17T15:50:54;99439.19;;;17.22;100.00
34738;BME280;39910;47.154;27.614;2022-09-17T16:08:52;99435.47;;;17.06;100.00
34738;BME280;39910;47.154;27.614;2022-09-17T16:11:29;99443.50;;;17.06;100.00
34738;BME280;39910;47.154;27.614;2022-09-17T16:13:56;99446.00;;;16.79;100.00
34738;BME280;39910;47.154;27.614;2022-09-17T16:16:32;99453.13;;;16.74;100.00
34738;BME280;39910;47.154;27.614;2022-09-17T16:18:58;99456.38;;;16.76;100.00
34738;BME280;39910;47.154;27.614;2022-09-17T16:21:24;99456.16;;;16.66;100.00
34738;BME280;39910;47.154;27.614;2022-09-17T16:23:49;99454.53;;;16.65;100.00
34738;BME280;39910;47.154;27.614;2022-09-17T16:26:20;99457.47;;;16.92;100.00
34738;BME280;39910;47.154;27.614;2022-09-17T16:28:52;99452.75;;;16.82;100.00
34738;BME280;39910;47.154;27.614;2022-09-17T16:31:18;99445.34;;;16.72;100.00
34738;BME280;39910;47.154;27.614;2022-09-17T16:33:45;99438.78;;;16.80;100.00
34738;BME280;39910;47.154;27.614;2022-09-17T16:36:15;99434.88;;;16.88;100.00
34738;BME280;39910;47.154;27.614;2022-09-17T16:38:41;99436.91;;;16.80;100.00
34738;BME280;39910;47.154;27.614;2022-09-17T16:41:06;99431.72;;;16.91;100.00
34738;BME280;39910;47.154;27.614;2022-09-17T16:43:32;99440.50;;;17.03;100.00
34738;BME280;39910;47.154;27.614;2022-09-17T16:46:08;99439.38;;;16.99;100.00
34738;BME280;39910;47.154;27.614;2022-09-17T16:48:36;99441.94;;;16.94;100.00
34738;BME280;39910;47.154;27.614;2022-09-17T16:51:12;99445.94;;;16.91;100.00
34738;BME280;39910;47.154;27.614;2022-09-17T16:53:38;99442.75;;;16.94;100.00
34738;BME280;39910;47.154;27.614;2022-09-17T16:56:08;99438.56;;;16.98;100.00